createdAt,value
2023-05-20T00:00:16.275Z,48.7
2023-05-20T00:05:16.159Z,48.6
2023-05-20T00:10:16.337Z,48.6
2023-05-20T00:15:16.286Z,48.5
2023-05-20T00:20:16.266Z,48.1
2023-05-20T00:25:16.286Z,48.1
2023-05-20T00:30:16.421Z,48.1
2023-05-20T00:35:16.298Z,48.0
2023-05-20T00:40:16.415Z,48.0
2023-05-20T00:45:16.273Z,48.1
2023-05-20T00:50:16.339Z,47.6
2023-05-20T00:55:16.310Z,47.6
2023-05-20T01:00:16.311Z,47.9
2023-05-20T01:05:16.484Z,47.7
2023-05-20T01:10:16.412Z,48.0
2023-05-20T01:15:16.356Z,47.9
2023-05-20T01:20:16.372Z,47.7
2023-05-20T01:25:16.378Z,48.0
2023-05-20T01:30:16.361Z,47.8
2023-05-20T01:35:16.887Z,48.2
2023-05-20T01:40:16.500Z,48.0
2023-05-20T01:45:16.379Z,48.2
2023-05-20T01:50:16.440Z,48.0
2023-05-20T01:55:16.398Z,48.2
2023-05-20T02:00:16.457Z,48.0
2023-05-20T02:05:16.545Z,47.9
2023-05-20T02:10:16.543Z,48.2
2023-05-20T02:15:16.485Z,48.0
2023-05-20T02:20:16.548Z,47.9
2023-05-20T02:25:16.505Z,48.3
2023-05-20T02:30:16.576Z,48.2
2023-05-20T02:35:16.540Z,48.2
2023-05-20T02:40:16.664Z,48.1
2023-05-20T02:45:16.508Z,48.1
2023-05-20T02:50:16.579Z,47.9
2023-05-20T02:55:16.682Z,47.9
2023-05-20T03:00:16.660Z,47.9
2023-05-20T03:05:16.694Z,47.8
2023-05-20T03:10:16.626Z,47.8
2023-05-20T03:15:16.649Z,47.8
2023-05-20T03:20:16.712Z,47.8
2023-05-20T03:25:16.619Z,47.8
2023-05-20T03:30:16.662Z,47.7
2023-05-20T03:35:16.776Z,47.7
2023-05-20T03:40:16.638Z,47.7
2023-05-20T03:45:16.816Z,47.6
2023-05-20T03:50:16.803Z,47.6
2023-05-20T03:55:16.659Z,47.6
2023-05-20T04:00:15.711Z,47.6
2023-05-20T04:05:15.772Z,47.2
2023-05-20T04:10:15.912Z,47.2
2023-05-20T04:15:15.815Z,47.5
2023-05-20T04:20:15.726Z,47.5
2023-05-20T04:25:15.818Z,47.5
2023-05-20T04:30:15.708Z,47.5
2023-05-20T04:35:15.765Z,47.4
2023-05-20T04:40:15.951Z,47.4
2023-05-20T04:45:15.785Z,47.6
2023-05-20T04:50:15.876Z,47.5
2023-05-20T04:55:15.962Z,47.5
2023-05-20T05:00:15.872Z,47.9
2023-05-20T05:05:15.836Z,47.8
2023-05-20T05:10:15.907Z,48.0
2023-05-20T05:15:15.983Z,47.9
2023-05-20T05:20:15.921Z,48.2
2023-05-20T05:25:15.888Z,48.1
2023-05-20T05:30:15.866Z,48.3
2023-05-20T05:35:15.945Z,48.3
2023-05-20T05:40:15.847Z,48.5
2023-05-20T05:45:15.902Z,48.5
2023-05-20T05:50:15.878Z,48.4
2023-05-20T05:55:15.930Z,48.3
2023-05-20T06:00:15.999Z,48.7
2023-05-20T06:05:15.831Z,48.7
2023-05-20T06:10:16.531Z,49.0
2023-05-20T06:15:15.958Z,49.1
2023-05-20T06:20:16.347Z,49.0
2023-05-20T06:25:16.180Z,48.9
2023-05-20T06:30:16.058Z,48.8
2023-05-20T06:35:16.013Z,49.0
2023-05-20T06:40:15.992Z,49.0
2023-05-20T06:45:15.982Z,48.9
2023-05-20T06:50:16.052Z,49.0
2023-05-20T06:55:16.097Z,49.4
2023-05-20T07:00:16.062Z,49.4
2023-05-20T07:05:16.121Z,49.7
2023-05-20T07:10:16.076Z,49.7
2023-05-20T07:15:16.390Z,49.7
2023-05-20T07:20:16.064Z,49.5
2023-05-20T07:25:16.184Z,49.5
2023-05-20T07:30:16.079Z,49.8
2023-05-20T07:35:16.162Z,49.7
2023-05-20T07:40:16.233Z,49.7
2023-05-20T07:45:16.262Z,49.7
2023-05-20T07:50:16.242Z,49.7
2023-05-20T07:55:16.193Z,50.0
2023-05-20T08:00:16.153Z,50.0
2023-05-20T08:05:16.106Z,50.0
2023-05-20T08:10:16.218Z,50.0
2023-05-20T08:15:16.339Z,50.0
2023-05-20T08:20:16.315Z,50.0
2023-05-20T08:25:16.197Z,50.3
2023-05-20T08:30:16.272Z,50.4
2023-05-20T08:35:16.317Z,50.3
2023-05-20T08:40:16.336Z,50.3
2023-05-20T08:45:16.331Z,50.6
2023-05-20T08:50:16.412Z,50.5
2023-05-20T08:55:16.292Z,50.5
2023-05-20T09:00:16.272Z,50.5
2023-05-20T09:05:16.464Z,50.5
2023-05-20T09:10:16.541Z,50.5
2023-05-20T09:15:17.002Z,50.6
2023-05-20T09:20:16.357Z,50.6
2023-05-20T09:25:16.377Z,50.7
2023-05-20T09:30:16.405Z,51.2
2023-05-20T09:35:16.411Z,51.3
2023-05-20T09:40:16.339Z,51.5
2023-05-20T09:45:16.429Z,51.8
2023-05-20T09:50:16.472Z,52.1
2023-05-20T09:55:16.497Z,52.2
2023-05-20T10:00:16.478Z,52.4
2023-05-20T10:05:16.373Z,52.5
2023-05-20T10:10:16.492Z,53.1
2023-05-20T10:15:16.687Z,53.4
2023-05-20T10:20:16.582Z,53.5
2023-05-20T10:25:16.546Z,53.6
2023-05-20T10:30:16.517Z,53.7
2023-05-20T10:35:16.539Z,53.7
2023-05-20T10:40:16.688Z,53.9
2023-05-20T10:45:16.594Z,54.0
2023-05-20T10:50:16.656Z,54.2
2023-05-20T10:55:16.548Z,54.4
2023-05-20T11:00:16.602Z,54.4
2023-05-20T11:05:16.521Z,54.6
2023-05-20T11:10:16.608Z,54.6
2023-05-20T11:15:16.598Z,54.7
2023-05-20T11:20:16.532Z,54.7
2023-05-20T11:25:16.555Z,54.5
2023-05-20T11:30:16.626Z,54.6
2023-05-20T11:35:16.595Z,54.8
2023-05-20T11:40:16.672Z,55.1
2023-05-20T11:45:16.634Z,55.1
2023-05-20T11:50:16.759Z,55.1
2023-05-20T11:55:16.603Z,54.9
2023-05-20T12:00:16.713Z,55.4
2023-05-20T12:05:16.531Z,55.3
2023-05-20T12:10:16.685Z,55.4
2023-05-20T12:15:16.826Z,55.1
2023-05-20T12:20:16.706Z,55.2
2023-05-20T12:25:16.858Z,55.4
2023-05-20T12:30:16.764Z,55.6
2023-05-20T12:35:16.849Z,55.8
2023-05-20T12:40:16.799Z,55.7
2023-05-20T12:45:16.789Z,55.9
2023-05-20T12:50:16.834Z,56.2
2023-05-20T12:55:16.831Z,56.4
2023-05-20T13:00:16.823Z,56.4
2023-05-20T13:05:16.913Z,56.7
2023-05-20T13:10:16.811Z,56.5
2023-05-20T13:15:16.822Z,56.9
2023-05-20T13:20:19.170Z,57.0
2023-05-20T13:25:16.882Z,57.1
2023-05-20T13:30:17.068Z,57.3
2023-05-20T13:35:17.096Z,57.7
2023-05-20T13:40:16.938Z,57.6
2023-05-20T13:45:17.101Z,57.3
2023-05-20T13:50:16.977Z,57.3
2023-05-20T13:55:16.916Z,57.1
2023-05-20T14:00:16.900Z,57.1
2023-05-20T14:05:16.856Z,56.8
2023-05-20T14:10:17.033Z,56.7
2023-05-20T14:15:16.937Z,57.0
2023-05-20T14:20:17.410Z,56.9
2023-05-20T14:25:17.128Z,56.8
2023-05-20T14:30:17.066Z,56.7
2023-05-20T14:35:17.002Z,56.8
2023-05-20T14:40:17.017Z,56.5
2023-05-20T14:45:17.168Z,56.5
2023-05-20T14:50:16.976Z,56.5
2023-05-20T14:55:17.050Z,56.7
2023-05-20T15:00:17.162Z,56.6
2023-05-20T15:05:17.087Z,56.8
2023-05-20T15:10:17.093Z,56.5
2023-05-20T15:15:17.240Z,56.3
2023-05-20T15:20:17.283Z,56.2
2023-05-20T15:25:17.175Z,56.5
2023-05-20T15:30:17.193Z,56.5
2023-05-20T15:35:17.088Z,56.3
2023-05-20T15:40:17.175Z,56.3
2023-05-20T15:45:17.160Z,56.1
2023-05-20T15:50:17.190Z,56.3
2023-05-20T15:55:17.214Z,56.5
2023-05-20T16:00:17.210Z,56.7
2023-05-20T16:05:17.074Z,56.8
2023-05-20T16:10:17.190Z,56.8
2023-05-20T16:15:17.183Z,56.9
2023-05-20T16:20:17.187Z,57.1
2023-05-20T16:25:17.337Z,57.2
2023-05-20T16:30:17.346Z,57.2
2023-05-20T16:35:17.408Z,57.3
2023-05-20T16:40:17.338Z,57.1
2023-05-20T16:45:17.434Z,57.0
2023-05-20T16:50:17.319Z,57.0
2023-05-20T16:55:17.280Z,56.6
2023-05-20T17:00:17.367Z,56.7
2023-05-20T17:05:17.307Z,56.6
2023-05-20T17:10:17.345Z,56.6
2023-05-20T17:15:17.275Z,56.5
2023-05-20T17:20:17.288Z,56.7
2023-05-20T17:25:17.488Z,56.6
2023-05-20T17:30:17.311Z,57.0
2023-05-20T17:35:17.362Z,57.1
2023-05-20T17:40:17.319Z,57.2
2023-05-20T17:45:17.514Z,57.7
2023-05-20T17:50:17.377Z,57.9
2023-05-20T17:55:15.431Z,58.0
2023-05-20T18:00:15.613Z,58.1
2023-05-20T18:05:15.284Z,58.0
2023-05-20T18:10:15.462Z,57.9
2023-05-20T18:15:15.413Z,57.5
2023-05-20T18:20:15.538Z,57.1
2023-05-20T18:25:15.476Z,56.5
2023-05-20T18:30:15.550Z,56.1
2023-05-20T18:35:15.536Z,56.1
2023-05-20T18:40:15.462Z,55.8
2023-05-20T18:45:15.563Z,55.5
2023-05-20T18:50:15.598Z,55.5
2023-05-20T18:55:15.512Z,55.4
2023-05-20T19:00:15.580Z,55.4
2023-05-20T19:05:15.761Z,55.6
2023-05-20T19:10:15.539Z,55.5
2023-05-20T19:15:15.676Z,55.4
2023-05-20T19:20:15.599Z,55.3
2023-05-20T19:25:15.591Z,55.4
2023-05-20T19:30:15.715Z,55.5
2023-05-20T19:35:15.666Z,55.9
2023-05-20T19:40:15.581Z,55.5
2023-05-20T19:45:15.658Z,55.7
2023-05-20T19:50:15.644Z,55.5
2023-05-20T19:55:15.689Z,55.5
2023-05-20T20:00:15.732Z,55.4
2023-05-20T20:05:15.789Z,55.4
2023-05-20T20:10:15.768Z,55.6
2023-05-20T20:15:15.721Z,55.5
2023-05-20T20:20:15.666Z,55.6
2023-05-20T20:25:15.831Z,56.3
2023-05-20T20:30:15.913Z,56.3
2023-05-20T20:35:15.929Z,57.0
2023-05-20T20:40:15.707Z,57.2
2023-05-20T20:45:15.739Z,57.0
2023-05-20T20:50:15.853Z,56.8
2023-05-20T20:55:15.777Z,57.1
2023-05-20T21:00:15.732Z,57.6
2023-05-20T21:05:15.783Z,57.7
2023-05-20T21:10:15.970Z,57.8
2023-05-20T21:15:15.774Z,58.0
2023-05-20T21:20:16.145Z,58.3
2023-05-20T21:25:15.817Z,58.4
2023-05-20T21:30:15.966Z,58.5
2023-05-20T21:35:16.082Z,58.7
2023-05-20T21:40:15.972Z,58.7
2023-05-20T21:45:15.874Z,58.7
2023-05-20T21:50:15.958Z,58.8
2023-05-20T21:55:15.837Z,58.9
2023-05-20T22:00:16.042Z,58.8
2023-05-20T22:05:15.817Z,58.9
2023-05-20T22:10:15.897Z,59.1
2023-05-20T22:15:16.072Z,59.1
2023-05-20T22:20:15.967Z,59.2
2023-05-20T22:25:16.105Z,59.1
2023-05-20T22:30:15.961Z,59.2
2023-05-20T22:35:16.096Z,59.1
2023-05-20T22:40:15.967Z,59.0
2023-05-20T22:45:16.069Z,58.9
2023-05-20T22:50:16.014Z,58.8
2023-05-20T22:55:16.057Z,58.9
2023-05-20T23:00:16.168Z,58.8
2023-05-20T23:05:16.017Z,58.7
2023-05-20T23:10:16.175Z,58.9
2023-05-20T23:15:16.130Z,58.9
2023-05-20T23:20:16.269Z,59.1
2023-05-20T23:25:16.344Z,59.2
2023-05-20T23:30:16.086Z,59.4
2023-05-20T23:35:16.213Z,59.4
2023-05-20T23:40:16.116Z,59.4
2023-05-20T23:45:16.238Z,59.1
2023-05-20T23:50:16.222Z,58.8
2023-05-20T23:55:16.299Z,58.7
